sensor_id;sensor_type;location;lat;lon;timestamp;pressure;altitude;pressure_sealevel;temperature;humidity
13456;BME280;6800;50.940;6.940;2023-09-19T00:01:24;100155.50;;;22.65;55.72
13456;BME280;6800;50.940;6.940;2023-09-19T00:05:29;100162.19;;;22.53;56.15
13456;BME280;6800;50.940;6.940;2023-09-19T00:09:30;100171.19;;;22.60;55.85
13456;BME280;6800;50.940;6.940;2023-09-19T00:13:34;100167.22;;;22.48;56.16
13456;BME280;6800;50.940;6.940;2023-09-19T00:17:37;100165.56;;;22.47;56.07
13456;BME280;6800;50.940;6.940;2023-09-19T00:21:41;100173.22;;;22.50;55.79
13456;BME280;6800;50.940;6.940;2023-09-19T00:25:43;100177.56;;;22.43;56.04
13456;BME280;6800;50.940;6.940;2023-09-19T00:29:44;100172.91;;;22.45;56.16
13456;BME280;6800;50.940;6.940;2023-09-19T00:33:46;100188.56;;;22.40;56.08
13456;BME280;6800;50.940;6.940;2023-09-19T00:37:47;100175.69;;;22.51;55.59
13456;BME280;6800;50.940;6.940;2023-09-19T00:41:48;100182.91;;;22.43;55.86
13456;BME280;6800;50.940;6.940;2023-09-19T00:45:52;100192.56;;;22.36;56.09
13456;BME280;6800;50.940;6.940;2023-09-19T00:49:55;100193.22;;;22.07;56.70
13456;BME280;6800;50.940;6.940;2023-09-19T00:53:56;100191.13;;;22.25;56.35
13456;BME280;6800;50.940;6.940;2023-09-19T00:58:00;100207.09;;;22.25;56.15
13456;BME280;6800;50.940;6.940;2023-09-19T01:02:02;100209.94;;;22.24;56.60
13456;BME280;6800;50.940;6.940;2023-09-19T01:06:05;100216.69;;;22.34;56.50
13456;BME280;6800;50.940;6.940;2023-09-19T01:10:08;100209.63;;;22.49;55.99
13456;BME280;6800;50.940;6.940;2023-09-19T01:14:20;100220.41;;;22.56;55.39
13456;BME280;6800;50.940;6.940;2023-09-19T01:23:03;100206.78;;;22.51;55.13
13456;BME280;6800;50.940;6.940;2023-09-19T01:31:33;100218.88;;;22.62;54.92
13456;BME280;6800;50.940;6.940;2023-09-19T01:35:40;100228.13;;;22.43;55.09
13456;BME280;6800;50.940;6.940;2023-09-19T01:39:41;100225.09;;;22.46;55.35
13456;BME280;6800;50.940;6.940;2023-09-19T01:43:44;100239.09;;;22.40;54.99
13456;BME280;6800;50.940;6.940;2023-09-19T01:47:55;100244.69;;;22.22;54.90
13456;BME280;6800;50.940;6.940;2023-09-19T01:52:02;100245.75;;;22.36;54.75
13456;BME280;6800;50.940;6.940;2023-09-19T01:56:08;100249.22;;;22.44;54.37
13456;BME280;6800;50.940;6.940;2023-09-19T02:00:15;100258.44;;;22.26;53.53
13456;BME280;6800;50.940;6.940;2023-09-19T02:04:18;100256.06;;;22.39;52.64
13456;BME280;6800;50.940;6.940;2023-09-19T02:08:21;100260.41;;;22.32;53.14
13456;BME280;6800;50.940;6.940;2023-09-19T02:12:27;100260.88;;;22.43;52.69
13456;BME280;6800;50.940;6.940;2023-09-19T02:16:28;100270.03;;;22.41;52.47
13456;BME280;6800;50.940;6.940;2023-09-19T02:20:30;100275.25;;;22.26;52.89
13456;BME280;6800;50.940;6.940;2023-09-19T02:24:34;100274.53;;;21.86;53.58
13456;BME280;6800;50.940;6.940;2023-09-19T02:28:36;100280.06;;;22.23;52.25
13456;BME280;6800;50.940;6.940;2023-09-19T02:32:37;100278.88;;;22.25;51.88
13456;BME280;6800;50.940;6.940;2023-09-19T02:36:40;100286.50;;;22.36;52.06
13456;BME280;6800;50.940;6.940;2023-09-19T02:40:41;100286.28;;;22.07;52.52
13456;BME280;6800;50.940;6.940;2023-09-19T02:44:44;100291.75;;;22.06;52.59
13456;BME280;6800;50.940;6.940;2023-09-19T02:48:48;100291.59;;;21.99;53.16
13456;BME280;6800;50.940;6.940;2023-09-19T02:52:51;100289.91;;;22.06;53.43
13456;BME280;6800;50.940;6.940;2023-09-19T02:56:53;100302.94;;;21.85;53.40
13456;BME280;6800;50.940;6.940;2023-09-19T03:00:55;100294.78;;;21.95;53.47
13456;BME280;6800;50.940;6.940;2023-09-19T03:04:57;100291.31;;;21.86;54.28
13456;BME280;6800;50.940;6.940;2023-09-19T03:09:01;100295.25;;;21.98;53.63
13456;BME280;6800;50.940;6.940;2023-09-19T03:13:04;100310.06;;;21.85;53.88
13456;BME280;6800;50.940;6.940;2023-09-19T03:17:05;100305.06;;;21.98;53.74
13456;BME280;6800;50.940;6.940;2023-09-19T03:21:07;100316.88;;;21.87;53.99
13456;BME280;6800;50.940;6.940;2023-09-19T03:25:08;100312.72;;;21.85;54.22
13456;BME280;6800;50.940;6.940;2023-09-19T03:29:13;100319.03;;;21.51;54.90
13456;BME280;6800;50.940;6.940;2023-09-19T03:33:15;100322.84;;;21.73;54.48
13456;BME280;6800;50.940;6.940;2023-09-19T03:37:17;100327.50;;;21.63;54.73
13456;BME280;6800;50.940;6.940;2023-09-19T03:41:19;100316.69;;;21.72;54.74
13456;BME280;6800;50.940;6.940;2023-09-19T03:45:21;100311.06;;;21.75;54.13
13456;BME280;6800;50.940;6.940;2023-09-19T03:49:22;100307.91;;;21.64;54.64
13456;BME280;6800;50.940;6.940;2023-09-19T03:53:24;100308.06;;;21.70;54.77
13456;BME280;6800;50.940;6.940;2023-09-19T03:57:25;100310.53;;;21.72;54.53
13456;BME280;6800;50.940;6.940;2023-09-19T04:01:26;100309.22;;;21.68;54.50
13456;BME280;6800;50.940;6.940;2023-09-19T04:05:29;100308.25;;;21.61;54.64
13456;BME280;6800;50.940;6.940;2023-09-19T04:09:30;100305.44;;;21.54;54.69
13456;BME280;6800;50.940;6.940;2023-09-19T04:13:32;100308.91;;;21.63;54.58
13456;BME280;6800;50.940;6.940;2023-09-19T04:17:34;100312.72;;;21.60;54.31
13456;BME280;6800;50.940;6.940;2023-09-19T04:21:35;100310.91;;;21.61;54.16
13456;BME280;6800;50.940;6.940;2023-09-19T04:25:37;100310.09;;;21.52;53.89
13456;BME280;6800;50.940;6.940;2023-09-19T04:29:39;100313.06;;;21.49;53.86
13456;BME280;6800;50.940;6.940;2023-09-19T04:33:40;100314.03;;;21.48;53.80
13456;BME280;6800;50.940;6.940;2023-09-19T04:37:44;100306.72;;;21.42;53.18
13456;BME280;6800;50.940;6.940;2023-09-19T04:41:46;100315.38;;;21.44;53.15
13456;BME280;6800;50.940;6.940;2023-09-19T04:45:49;100325.00;;;21.45;52.92
13456;BME280;6800;50.940;6.940;2023-09-19T04:49:50;100338.13;;;21.39;52.83
13456;BME280;6800;50.940;6.940;2023-09-19T04:53:52;100333.13;;;21.28;52.51
13456;BME280;6800;50.940;6.940;2023-09-19T04:57:53;100344.09;;;21.49;52.10
13456;BME280;6800;50.940;6.940;2023-09-19T05:01:54;100347.06;;;21.38;52.03
13456;BME280;6800;50.940;6.940;2023-09-19T05:05:57;100340.59;;;21.24;51.78
13456;BME280;6800;50.940;6.940;2023-09-19T05:09:58;100343.56;;;21.29;51.49
13456;BME280;6800;50.940;6.940;2023-09-19T05:14:00;100355.56;;;21.33;51.44
13456;BME280;6800;50.940;6.940;2023-09-19T05:18:05;100344.56;;;21.20;51.92
13456;BME280;6800;50.940;6.940;2023-09-19T05:22:08;100344.25;;;21.31;51.36
13456;BME280;6800;50.940;6.940;2023-09-19T05:26:09;100357.19;;;21.26;51.41
13456;BME280;6800;50.940;6.940;2023-09-19T05:30:12;100363.66;;;21.40;51.12
13456;BME280;6800;50.940;6.940;2023-09-19T05:34:16;100373.63;;;21.38;51.13
13456;BME280;6800;50.940;6.940;2023-09-19T05:38:17;100383.63;;;21.68;50.95
13456;BME280;6800;50.940;6.940;2023-09-19T05:42:20;100393.09;;;21.70;50.56
13456;BME280;6800;50.940;6.940;2023-09-19T05:46:22;100390.78;;;21.75;50.07
13456;BME280;6800;50.940;6.940;2023-09-19T05:50:23;100405.72;;;21.68;49.73
13456;BME280;6800;50.940;6.940;2023-09-19T05:54:25;100405.38;;;21.47;50.29
13456;BME280;6800;50.940;6.940;2023-09-19T05:58:27;100406.88;;;21.74;49.55
13456;BME280;6800;50.940;6.940;2023-09-19T06:02:29;100410.38;;;21.58;49.50
13456;BME280;6800;50.940;6.940;2023-09-19T06:06:31;100424.66;;;21.73;49.11
13456;BME280;6800;50.940;6.940;2023-09-19T06:10:35;100428.31;;;21.81;49.32
13456;BME280;6800;50.940;6.940;2023-09-19T06:14:36;100439.00;;;21.97;48.53
13456;BME280;6800;50.940;6.940;2023-09-19T06:18:38;100439.97;;;22.04;48.09
13456;BME280;6800;50.940;6.940;2023-09-19T06:22:44;100444.31;;;22.13;48.04
13456;BME280;6800;50.940;6.940;2023-09-19T06:26:46;100448.63;;;22.14;47.99
13456;BME280;6800;50.940;6.940;2023-09-19T06:30:49;100444.59;;;22.34;47.77
13456;BME280;6800;50.940;6.940;2023-09-19T06:34:52;100458.25;;;22.39;47.13
13456;BME280;6800;50.940;6.940;2023-09-19T15:55:22;100368.94;;;27.02;34.58
13456;BME280;6800;50.940;6.940;2023-09-19T15:59:24;100362.34;;;26.57;35.13
13456;BME280;6800;50.940;6.940;2023-09-19T16:03:25;100361.72;;;26.96;35.36
13456;BME280;6800;50.940;6.940;2023-09-19T16:07:28;100366.25;;;27.02;34.40
13456;BME280;6800;50.940;6.940;2023-09-19T16:11:32;100366.28;;;27.08;35.20
13456;BME280;6800;50.940;6.940;2023-09-19T16:15:41;100360.50;;;26.98;34.81
13456;BME280;6800;50.940;6.940;2023-09-19T16:19:43;100352.47;;;27.05;34.60
13456;BME280;6800;50.940;6.940;2023-09-19T16:23:49;100364.63;;;27.01;34.91
13456;BME280;6800;50.940;6.940;2023-09-19T16:27:51;100355.03;;;26.38;35.81
13456;BME280;6800;50.940;6.940;2023-09-19T16:31:52;100373.28;;;26.62;35.98
13456;BME280;6800;50.940;6.940;2023-09-19T16:35:54;100368.81;;;26.35;36.50
13456;BME280;6800;50.940;6.940;2023-09-19T16:39:55;100374.16;;;26.35;36.28
13456;BME280;6800;50.940;6.940;2023-09-19T16:43:57;100370.19;;;26.24;36.88
13456;BME280;6800;50.940;6.940;2023-09-19T16:47:59;100370.06;;;26.39;36.47
13456;BME280;6800;50.940;6.940;2023-09-19T16:52:00;100363.13;;;26.51;36.34
13456;BME280;6800;50.940;6.940;2023-09-19T16:56:06;100371.81;;;26.25;37.00
13456;BME280;6800;50.940;6.940;2023-09-19T17:00:13;100373.78;;;26.10;37.50
13456;BME280;6800;50.940;6.940;2023-09-19T17:04:18;100369.78;;;26.00;37.62
13456;BME280;6800;50.940;6.940;2023-09-19T17:08:20;100373.25;;;26.00;37.64
13456;BME280;6800;50.940;6.940;2023-09-19T17:12:21;100380.88;;;25.54;38.64
13456;BME280;6800;50.940;6.940;2023-09-19T17:16:22;100381.94;;;25.81;38.47
13456;BME280;6800;50.940;6.940;2023-09-19T17:20:28;100381.44;;;25.71;38.43
13456;BME280;6800;50.940;6.940;2023-09-19T17:24:29;100377.84;;;25.58;39.19
13456;BME280;6800;50.940;6.940;2023-09-19T17:28:34;100385.09;;;25.64;39.30
13456;BME280;6800;50.940;6.940;2023-09-19T17:32:37;100375.28;;;25.49;39.23
13456;BME280;6800;50.940;6.940;2023-09-19T17:36:40;100381.78;;;25.62;39.28
13456;BME280;6800;50.940;6.940;2023-09-19T17:40:41;100379.56;;;25.29;39.56
13456;BME280;6800;50.940;6.940;2023-09-19T17:44:43;100389.47;;;25.14;39.84
13456;BME280;6800;50.940;6.940;2023-09-19T17:48:46;100392.28;;;25.27;39.51
13456;BME280;6800;50.940;6.940;2023-09-19T17:52:48;100383.22;;;25.07;39.60
13456;BME280;6800;50.940;6.940;2023-09-19T17:56:50;100387.94;;;24.91;40.84
13456;BME280;6800;50.940;6.940;2023-09-19T18:00:52;100379.09;;;24.90;40.59
13456;BME280;6800;50.940;6.940;2023-09-19T18:04:53;100378.53;;;24.65;40.38
13456;BME280;6800;50.940;6.940;2023-09-19T18:08:55;100387.22;;;24.82;40.45
13456;BME280;6800;50.940;6.940;2023-09-19T18:12:57;100386.63;;;25.01;39.82
13456;BME280;6800;50.940;6.940;2023-09-19T18:16:59;100383.13;;;25.01;40.28
13456;BME280;6800;50.940;6.940;2023-09-19T18:21:01;100380.47;;;25.01;40.54
13456;BME280;6800;50.940;6.940;2023-09-19T18:25:03;100394.56;;;24.95;40.30
13456;BME280;6800;50.940;6.940;2023-09-19T18:29:04;100397.78;;;24.90;40.75
13456;BME280;6800;50.940;6.940;2023-09-19T18:33:07;100400.75;;;24.81;41.00
13456;BME280;6800;50.940;6.940;2023-09-19T18:37:08;100393.59;;;24.81;41.29
13456;BME280;6800;50.940;6.940;2023-09-19T18:41:13;100403.31;;;24.59;41.53
13456;BME280;6800;50.940;6.940;2023-09-19T18:45:18;100402.66;;;24.72;41.80
13456;BME280;6800;50.940;6.940;2023-09-19T18:49:39;100405.34;;;24.57;41.94
13456;BME280;6800;50.940;6.940;2023-09-19T18:53:41;100409.56;;;24.52;41.86
13456;BME280;6800;50.940;6.940;2023-09-19T18:57:47;100410.78;;;24.49;41.74
13456;BME280;6800;50.940;6.940;2023-09-19T19:01:48;100407.09;;;24.50;42.18
13456;BME280;6800;50.940;6.940;2023-09-19T19:05:50;100405.25;;;24.36;42.23
13456;BME280;6800;50.940;6.940;2023-09-19T19:09:52;100403.56;;;24.21;42.59
13456;BME280;6800;50.940;6.940;2023-09-19T19:13:54;100400.47;;;24.46;42.29
13456;BME280;6800;50.940;6.940;2023-09-19T19:17:57;100405.44;;;24.64;41.58
13456;BME280;6800;50.940;6.940;2023-09-19T19:22:00;100409.75;;;24.50;42.11
13456;BME280;6800;50.940;6.940;2023-09-19T19:26:03;100399.53;;;24.39;42.30
13456;BME280;6800;50.940;6.940;2023-09-19T19:30:06;100401.19;;;24.69;41.46
13456;BME280;6800;50.940;6.940;2023-09-19T19:34:09;100397.69;;;24.54;41.84
13456;BME280;6800;50.940;6.940;2023-09-19T19:38:11;100398.63;;;24.61;41.72
13456;BME280;6800;50.940;6.940;2023-09-19T19:42:13;100393.75;;;24.50;42.17
13456;BME280;6800;50.940;6.940;2023-09-19T19:46:15;100393.63;;;24.44;42.01
13456;BME280;6800;50.940;6.940;2023-09-19T19:50:16;100390.31;;;24.27;42.80
13456;BME280;6800;50.940;6.940;2023-09-19T19:54:19;100399.28;;;24.49;42.40
13456;BME280;6800;50.940;6.940;2023-09-19T19:58:21;100388.41;;;24.50;42.58
13456;BME280;6800;50.940;6.940;2023-09-19T20:02:23;100401.97;;;24.12;43.55
13456;BME280;6800;50.940;6.940;2023-09-19T20:06:25;100408.75;;;24.51;42.90
13456;BME280;6800;50.940;6.940;2023-09-19T20:10:29;100401.00;;;24.56;42.50
13456;BME280;6800;50.940;6.940;2023-09-19T20:14:30;100400.16;;;24.56;42.45
13456;BME280;6800;50.940;6.940;2023-09-19T20:18:33;100394.66;;;24.43;42.72
13456;BME280;6800;50.940;6.940;2023-09-19T20:22:39;100386.91;;;24.33;43.23
13456;BME280;6800;50.940;6.940;2023-09-19T20:26:41;100384.16;;;24.41;43.27
13456;BME280;6800;50.940;6.940;2023-09-19T20:30:44;100370.53;;;24.51;43.85
13456;BME280;6800;50.940;6.940;2023-09-19T20:34:46;100382.75;;;24.16;44.57
13456;BME280;6800;50.940;6.940;2023-09-19T20:38:47;100390.00;;;24.08;44.98
13456;BME280;6800;50.940;6.940;2023-09-19T20:42:49;100395.75;;;24.19;44.47
13456;BME280;6800;50.940;6.940;2023-09-19T20:46:51;100398.63;;;24.32;44.33
13456;BME280;6800;50.940;6.940;2023-09-19T20:50:55;100404.81;;;24.76;43.56
13456;BME280;6800;50.940;6.940;2023-09-19T20:54:57;100408.00;;;24.28;44.60
13456;BME280;6800;50.940;6.940;2023-09-19T20:58:58;100413.59;;;24.33;44.18
13456;BME280;6800;50.940;6.940;2023-09-19T21:03:01;100404.19;;;24.08;44.76
13456;BME280;6800;50.940;6.940;2023-09-19T21:07:03;100404.38;;;24.21;44.54
13456;BME280;6800;50.940;6.940;2023-09-19T21:11:14;100416.06;;;24.20;45.13
13456;BME280;6800;50.940;6.940;2023-09-19T21:15:17;100404.59;;;24.20;44.70
13456;BME280;6800;50.940;6.940;2023-09-19T21:19:18;100398.22;;;24.35;44.80
13456;BME280;6800;50.940;6.940;2023-09-19T21:23:20;100395.38;;;23.99;45.78
13456;BME280;6800;50.940;6.940;2023-09-19T21:27:22;100389.47;;;24.12;45.12
13456;BME280;6800;50.940;6.940;2023-09-19T21:31:23;100390.69;;;24.01;45.55
13456;BME280;6800;50.940;6.940;2023-09-19T21:35:25;100390.00;;;23.85;45.71
13456;BME280;6800;50.940;6.940;2023-09-19T21:39:27;100380.28;;;23.92;45.60
13456;BME280;6800;50.940;6.940;2023-09-19T21:43:28;100389.28;;;23.46;47.00
13456;BME280;6800;50.940;6.940;2023-09-19T21:47:29;100380.78;;;23.73;45.96
13456;BME280;6800;50.940;6.940;2023-09-19T21:51:32;100385.91;;;23.97;46.01
13456;BME280;6800;50.940;6.940;2023-09-19T21:55:34;100379.00;;;23.65;46.28
13456;BME280;6800;50.940;6.940;2023-09-19T21:59:35;100375.72;;;24.00;45.43
13456;BME280;6800;50.940;6.940;2023-09-19T22:03:38;100374.78;;;23.93;45.38
13456;BME280;6800;50.940;6.940;2023-09-19T22:07:41;100382.66;;;23.87;45.88
13456;BME280;6800;50.940;6.940;2023-09-19T22:11:45;100366.03;;;23.99;45.57
13456;BME280;6800;50.940;6.940;2023-09-19T22:15:47;100372.41;;;23.76;46.39
13456;BME280;6800;50.940;6.940;2023-09-19T22:19:49;100367.47;;;24.10;45.66
13456;BME280;6800;50.940;6.940;2023-09-19T22:23:54;100367.50;;;23.65;46.51
13456;BME280;6800;50.940;6.940;2023-09-19T22:27:55;100375.66;;;23.86;46.08
13456;BME280;6800;50.940;6.940;2023-09-19T22:31:57;100373.78;;;23.72;46.35
13456;BME280;6800;50.940;6.940;2023-09-19T22:36:00;100373.78;;;23.72;46.45
13456;BME280;6800;50.940;6.940;2023-09-19T22:40:06;100365.81;;;23.49;46.84
13456;BME280;6800;50.940;6.940;2023-09-19T22:44:26;100366.09;;;23.54;47.27
13456;BME280;6800;50.940;6.940;2023-09-19T22:48:28;100375.88;;;23.62;47.11
13456;BME280;6800;50.940;6.940;2023-09-19T22:52:31;100380.44;;;23.22;47.90
13456;BME280;6800;50.940;6.940;2023-09-19T22:56:38;100367.28;;;23.52;47.41
13456;BME280;6800;50.940;6.940;2023-09-19T23:00:40;100367.50;;;23.42;47.56
13456;BME280;6800;50.940;6.940;2023-09-19T23:04:42;100366.06;;;23.32;48.04
13456;BME280;6800;50.940;6.940;2023-09-19T23:08:44;100368.81;;;23.46;47.40
13456;BME280;6800;50.940;6.940;2023-09-19T23:12:47;100381.91;;;23.25;47.99
13456;BME280;6800;50.940;6.940;2023-09-19T23:16:48;100375.28;;;23.52;47.56
13456;BME280;6800;50.940;6.940;2023-09-19T23:20:57;100373.78;;;23.18;48.82
13456;BME280;6800;50.940;6.940;2023-09-19T23:25:16;100370.59;;;23.23;48.75
13456;BME280;6800;50.940;6.940;2023-09-19T23:29:27;100367.88;;;23.39;48.39
13456;BME280;6800;50.940;6.940;2023-09-19T23:33:29;100379.22;;;23.33;48.66
13456;BME280;6800;50.940;6.940;2023-09-19T23:37:31;100368.22;;;23.36;48.43
13456;BME280;6800;50.940;6.940;2023-09-19T23:41:33;100361.53;;;23.40;48.07
13456;BME280;6800;50.940;6.940;2023-09-19T23:45:34;100348.97;;;23.49;47.98
13456;BME280;6800;50.940;6.940;2023-09-19T23:49:38;100352.75;;;23.54;48.14
13456;BME280;6800;50.940;6.940;2023-09-19T23:53:42;100354.75;;;23.29;48.69
13456;BME280;6800;50.940;6.940;2023-09-19T23:57:43;100357.75;;;23.57;48.58
